sensor_id;sensor_type;location;lat;lon;timestamp;pressure;altitude;pressure_sealevel;temperature;humidity
11053;BME280;55230;42.602;23.470;2024-03-25T00:01:13;92244.78;;;2.07;100.00
11053;BME280;55230;42.602;23.470;2024-03-25T00:03:38;92253.91;;;2.08;100.00
11053;BME280;55230;42.602;23.470;2024-03-25T00:06:04;92253.38;;;2.02;100.00
11053;BME280;55230;42.602;23.470;2024-03-25T00:08:29;92265.06;;;2.03;100.00
11053;BME280;55230;42.602;23.470;2024-03-25T00:10:55;92255.31;;;1.93;100.00
11053;BME280;55230;42.602;23.470;2024-03-25T00:13:21;92265.94;;;1.95;100.00
11053;BME280;55230;42.602;23.470;2024-03-25T00:15:46;92263.41;;;1.95;100.00
11053;BME280;55230;42.602;23.470;2024-03-25T00:18:12;92248.41;;;1.82;100.00
11053;BME280;55230;42.602;23.470;2024-03-25T00:20:37;92245.75;;;1.66;100.00
11053;BME280;55230;42.602;23.470;2024-03-25T00:23:03;92248.19;;;1.62;100.00
11053;BME280;55230;42.602;23.470;2024-03-25T00:25:29;92261.88;;;1.58;100.00
11053;BME280;55230;42.602;23.470;2024-03-25T00:27:54;92263.13;;;1.39;100.00
11053;BME280;55230;42.602;23.470;2024-03-25T00:30:19;92276.63;;;1.40;100.00
11053;BME280;55230;42.602;23.470;2024-03-25T00:32:45;92272.25;;;1.40;100.00
11053;BME280;55230;42.602;23.470;2024-03-25T00:35:11;92246.03;;;1.40;100.00
11053;BME280;55230;42.602;23.470;2024-03-25T00:37:37;92242.25;;;1.46;100.00
11053;BME280;55230;42.602;23.470;2024-03-25T00:40:03;92244.03;;;1.46;100.00
11053;BME280;55230;42.602;23.470;2024-03-25T00:42:29;92251.16;;;1.52;100.00
11053;BME280;55230;42.602;23.470;2024-03-25T00:44:55;92233.22;;;1.49;100.00
11053;BME280;55230;42.602;23.470;2024-03-25T00:47:20;92239.38;;;1.48;100.00
11053;BME280;55230;42.602;23.470;2024-03-25T00:49:46;92240.44;;;1.59;100.00
11053;BME280;55230;42.602;23.470;2024-03-25T00:52:11;92244.69;;;1.67;100.00
11053;BME280;55230;42.602;23.470;2024-03-25T00:54:36;92237.47;;;1.57;100.00
11053;BME280;55230;42.602;23.470;2024-03-25T00:57:02;92230.16;;;1.67;100.00
11053;BME280;55230;42.602;23.470;2024-03-25T00:59:27;92226.53;;;1.81;100.00
11053;BME280;55230;42.602;23.470;2024-03-25T01:01:53;92216.84;;;1.86;100.00
11053;BME280;55230;42.602;23.470;2024-03-25T01:04:18;92225.25;;;1.87;100.00
11053;BME280;55230;42.602;23.470;2024-03-25T01:06:44;92231.31;;;1.82;100.00
11053;BME280;55230;42.602;23.470;2024-03-25T01:09:09;92232.69;;;1.80;100.00
11053;BME280;55230;42.602;23.470;2024-03-25T01:11:35;92226.19;;;1.70;100.00
11053;BME280;55230;42.602;23.470;2024-03-25T01:14:00;92228.75;;;1.58;100.00
11053;BME280;55230;42.602;23.470;2024-03-25T01:16:26;92235.44;;;1.50;100.00
11053;BME280;55230;42.602;23.470;2024-03-25T01:18:52;92221.22;;;1.61;100.00
11053;BME280;55230;42.602;23.470;2024-03-25T01:21:17;92216.63;;;1.55;100.00
11053;BME280;55230;42.602;23.470;2024-03-25T01:23:43;92204.53;;;1.64;100.00
11053;BME280;55230;42.602;23.470;2024-03-25T01:26:08;92205.06;;;1.57;100.00
11053;BME280;55230;42.602;23.470;2024-03-25T01:28:33;92205.59;;;1.75;100.00
11053;BME280;55230;42.602;23.470;2024-03-25T01:30:59;92195.19;;;1.80;100.00
11053;BME280;55230;42.602;23.470;2024-03-25T01:33:25;92198.59;;;1.84;100.00
11053;BME280;55230;42.602;23.470;2024-03-25T01:35:51;92198.69;;;1.88;100.00
11053;BME280;55230;42.602;23.470;2024-03-25T01:38:16;92199.31;;;1.85;100.00
11053;BME280;55230;42.602;23.470;2024-03-25T01:40:42;92197.72;;;1.92;100.00
11053;BME280;55230;42.602;23.470;2024-03-25T01:43:07;92194.22;;;1.97;100.00
11053;BME280;55230;42.602;23.470;2024-03-25T01:45:34;92206.66;;;1.98;100.00
11053;BME280;55230;42.602;23.470;2024-03-25T01:48:06;92218.22;;;2.08;100.00
11053;BME280;55230;42.602;23.470;2024-03-25T01:50:37;92214.38;;;2.14;100.00
11053;BME280;55230;42.602;23.470;2024-03-25T01:53:04;92220.88;;;2.12;100.00
11053;BME280;55230;42.602;23.470;2024-03-25T01:55:32;92210.34;;;2.13;100.00
11053;BME280;55230;42.602;23.470;2024-03-25T01:58:00;92205.66;;;2.15;100.00
11053;BME280;55230;42.602;23.470;2024-03-25T02:00:26;92203.31;;;2.10;100.00
11053;BME280;55230;42.602;23.470;2024-03-25T02:02:52;92190.38;;;2.03;100.00
11053;BME280;55230;42.602;23.470;2024-03-25T02:05:19;92205.97;;;2.14;100.00
11053;BME280;55230;42.602;23.470;2024-03-25T02:07:45;92202.28;;;1.99;100.00
11053;BME280;55230;42.602;23.470;2024-03-25T02:10:11;92218.53;;;2.06;100.00
11053;BME280;55230;42.602;23.470;2024-03-25T02:12:40;92221.84;;;1.95;100.00
11053;BME280;55230;42.602;23.470;2024-03-25T02:15:07;92223.84;;;2.01;100.00
11053;BME280;55230;42.602;23.470;2024-03-25T02:17:33;92226.31;;;1.98;100.00
11053;BME280;55230;42.602;23.470;2024-03-25T02:20:00;92232.16;;;1.98;100.00
11053;BME280;55230;42.602;23.470;2024-03-25T02:22:25;92233.13;;;1.82;100.00
11053;BME280;55230;42.602;23.470;2024-03-25T02:24:53;92230.03;;;1.88;100.00
11053;BME280;55230;42.602;23.470;2024-03-25T02:27:18;92221.31;;;1.77;100.00
11053;BME280;55230;42.602;23.470;2024-03-25T02:29:44;92223.88;;;1.77;100.00
11053;BME280;55230;42.602;23.470;2024-03-25T02:32:10;92233.41;;;1.68;100.00
11053;BME280;55230;42.602;23.470;2024-03-25T02:34:42;92226.84;;;1.67;100.00
11053;BME280;55230;42.602;23.470;2024-03-25T02:37:09;92218.66;;;1.61;100.00
11053;BME280;55230;42.602;23.470;2024-03-25T02:39:35;92222.47;;;1.55;100.00
11053;BME280;55230;42.602;23.470;2024-03-25T02:42:01;92228.13;;;1.61;100.00
11053;BME280;55230;42.602;23.470;2024-03-25T02:44:26;92224.41;;;1.58;100.00
11053;BME280;55230;42.602;23.470;2024-03-25T02:46:52;92226.75;;;1.63;100.00
11053;BME280;55230;42.602;23.470;2024-03-25T02:49:18;92225.78;;;1.56;100.00
11053;BME280;55230;42.602;23.470;2024-03-25T02:51:43;92222.59;;;1.59;100.00
11053;BME280;55230;42.602;23.470;2024-03-25T02:54:09;92228.97;;;1.65;100.00
11053;BME280;55230;42.602;23.470;2024-03-25T02:56:34;92236.31;;;1.66;100.00
11053;BME280;55230;42.602;23.470;2024-03-25T02:59:00;92242.78;;;1.64;100.00
11053;BME280;55230;42.602;23.470;2024-03-25T03:01:26;92238.00;;;1.50;100.00
11053;BME280;55230;42.602;23.470;2024-03-25T03:03:51;92245.41;;;1.55;100.00
11053;BME280;55230;42.602;23.470;2024-03-25T03:06:17;92235.75;;;1.61;100.00
11053;BME280;55230;42.602;23.470;2024-03-25T03:08:44;92252.75;;;1.57;100.00
11053;BME280;55230;42.602;23.470;2024-03-25T03:11:09;92251.50;;;1.63;100.00
11053;BME280;55230;42.602;23.470;2024-03-25T03:13:35;92247.66;;;1.69;100.00
11053;BME280;55230;42.602;23.470;2024-03-25T03:16:00;92253.41;;;1.66;100.00
11053;BME280;55230;42.602;23.470;2024-03-25T03:18:25;92247.13;;;1.63;100.00
11053;BME280;55230;42.602;23.470;2024-03-25T03:20:51;92252.34;;;1.67;100.00
11053;BME280;55230;42.602;23.470;2024-03-25T03:23:16;92260.09;;;1.70;100.00
11053;BME280;55230;42.602;23.470;2024-03-25T03:25:42;92268.50;;;1.83;100.00
11053;BME280;55230;42.602;23.470;2024-03-25T03:28:08;92265.53;;;1.81;100.00
11053;BME280;55230;42.602;23.470;2024-03-25T03:30:33;92270.59;;;1.69;100.00
11053;BME280;55230;42.602;23.470;2024-03-25T03:32:59;92268.91;;;1.73;100.00
11053;BME280;55230;42.602;23.470;2024-03-25T03:35:24;92272.31;;;1.65;100.00
11053;BME280;55230;42.602;23.470;2024-03-25T03:37:49;92279.53;;;1.75;98.64
11053;BME280;55230;42.602;23.470;2024-03-25T03:40:15;92280.28;;;1.88;97.50
11053;BME280;55230;42.602;23.470;2024-03-25T03:42:40;92273.38;;;1.88;98.45
11053;BME280;55230;42.602;23.470;2024-03-25T03:45:06;92272.53;;;1.84;96.60
11053;BME280;55230;42.602;23.470;2024-03-25T03:47:32;92271.69;;;1.92;96.90
11053;BME280;55230;42.602;23.470;2024-03-25T03:49:57;92269.56;;;1.94;97.13
11053;BME280;55230;42.602;23.470;2024-03-25T03:52:23;92280.19;;;1.96;97.86
11053;BME280;55230;42.602;23.470;2024-03-25T03:54:48;92289.00;;;1.99;97.32
11053;BME280;55230;42.602;23.470;2024-03-25T03:57:14;92283.38;;;1.93;97.24
11053;BME280;55230;42.602;23.470;2024-03-25T03:59:39;92282.31;;;1.94;97.68
11053;BME280;55230;42.602;23.470;2024-03-25T04:02:04;92280.06;;;1.93;97.49
11053;BME280;55230;42.602;23.470;2024-03-25T04:04:30;92280.81;;;1.93;96.70
11053;BME280;55230;42.602;23.470;2024-03-25T04:06:55;92295.19;;;1.98;97.23
11053;BME280;55230;42.602;23.470;2024-03-25T04:09:21;92301.22;;;1.93;97.24
11053;BME280;55230;42.602;23.470;2024-03-25T04:11:49;92320.78;;;2.01;97.54
11053;BME280;55230;42.602;23.470;2024-03-25T04:14:14;92308.00;;;2.01;98.67
11053;BME280;55230;42.602;23.470;2024-03-25T04:16:40;92306.88;;;1.99;97.86
11053;BME280;55230;42.602;23.470;2024-03-25T04:19:05;92306.13;;;1.98;97.64
11053;BME280;55230;42.602;23.470;2024-03-25T04:21:30;92311.44;;;2.05;97.68
11053;BME280;55230;42.602;23.470;2024-03-25T04:23:56;92309.09;;;2.00;96.06
11053;BME280;55230;42.602;23.470;2024-03-25T04:26:21;92304.31;;;1.99;95.11
11053;BME280;55230;42.602;23.470;2024-03-25T04:28:47;92304.53;;;2.06;96.61
11053;BME280;55230;42.602;23.470;2024-03-25T04:31:12;92317.69;;;1.96;94.56
11053;BME280;55230;42.602;23.470;2024-03-25T04:33:38;92318.22;;;2.01;94.84
11053;BME280;55230;42.602;23.470;2024-03-25T04:36:03;92331.94;;;1.97;95.23
11053;BME280;55230;42.602;23.470;2024-03-25T04:38:29;92326.41;;;1.95;94.95
11053;BME280;55230;42.602;23.470;2024-03-25T04:40:54;92342.47;;;1.95;92.95
11053;BME280;55230;42.602;23.470;2024-03-25T04:43:20;92347.44;;;2.04;94.02
11053;BME280;55230;42.602;23.470;2024-03-25T04:45:46;92365.75;;;2.06;93.54
11053;BME280;55230;42.602;23.470;2024-03-25T04:48:11;92372.97;;;2.04;92.80
11053;BME280;55230;42.602;23.470;2024-03-25T04:50:36;92354.28;;;2.00;92.20
11053;BME280;55230;42.602;23.470;2024-03-25T04:53:02;92362.44;;;2.05;92.00
11053;BME280;55230;42.602;23.470;2024-03-25T04:55:28;92369.78;;;2.07;92.58
11053;BME280;55230;42.602;23.470;2024-03-25T04:57:53;92386.59;;;2.08;91.36
11053;BME280;55230;42.602;23.470;2024-03-25T05:00:19;92373.81;;;2.08;91.02
11053;BME280;55230;42.602;23.470;2024-03-25T05:02:44;92374.34;;;2.01;91.39
11053;BME280;55230;42.602;23.470;2024-03-25T05:31:24;92385.31;;;2.14;91.91
11053;BME280;55230;42.602;23.470;2024-03-25T05:34:11;92382.66;;;2.10;91.36
11053;BME280;55230;42.602;23.470;2024-03-25T05:37:15;92415.31;;;2.29;90.60
11053;BME280;55230;42.602;23.470;2024-03-25T05:39:53;92413.59;;;2.21;89.40
11053;BME280;55230;42.602;23.470;2024-03-25T05:56:55;92441.69;;;2.33;89.29
11053;BME280;55230;42.602;23.470;2024-03-25T05:59:57;92440.94;;;2.33;88.48
11053;BME280;55230;42.602;23.470;2024-03-25T06:03:15;92432.88;;;2.31;88.50
11053;BME280;55230;42.602;23.470;2024-03-25T06:06:23;92423.72;;;2.30;87.21
11053;BME280;55230;42.602;23.470;2024-03-25T06:09:34;92452.78;;;2.62;86.60
11053;BME280;55230;42.602;23.470;2024-03-25T06:12:28;92464.56;;;2.54;85.95
11053;BME280;55230;42.602;23.470;2024-03-25T06:15:46;92471.59;;;2.57;86.61
11053;BME280;55230;42.602;23.470;2024-03-25T06:25:59;92476.38;;;2.34;86.48
11053;BME280;55230;42.602;23.470;2024-03-25T06:28:24;92494.97;;;2.35;85.86
11053;BME280;55230;42.602;23.470;2024-03-25T06:30:51;92485.50;;;2.35;86.82
11053;BME280;55230;42.602;23.470;2024-03-25T06:33:35;92485.09;;;2.45;85.35
11053;BME280;55230;42.602;23.470;2024-03-25T06:36:19;92494.44;;;2.41;86.39
11053;BME280;55230;42.602;23.470;2024-03-25T06:38:45;92500.19;;;2.38;84.90
11053;BME280;55230;42.602;23.470;2024-03-25T06:41:10;92506.28;;;2.46;83.86
11053;BME280;55230;42.602;23.470;2024-03-25T06:43:36;92510.13;;;2.64;84.72
11053;BME280;55230;42.602;23.470;2024-03-25T06:46:03;92501.22;;;2.83;84.76
11053;BME280;55230;42.602;23.470;2024-03-25T06:48:29;92513.09;;;3.27;82.93
11053;BME280;55230;42.602;23.470;2024-03-25T06:50:57;92511.38;;;3.43;80.87
11053;BME280;55230;42.602;23.470;2024-03-25T06:53:23;92507.13;;;3.35;79.17
11053;BME280;55230;42.602;23.470;2024-03-25T06:55:52;92518.25;;;3.67;79.42
11053;BME280;55230;42.602;23.470;2024-03-25T06:58:19;92516.84;;;3.70;79.36
11053;BME280;55230;42.602;23.470;2024-03-25T07:00:45;92516.31;;;3.76;78.20
11053;BME280;55230;42.602;23.470;2024-03-25T07:03:10;92514.84;;;3.63;78.12
11053;BME280;55230;42.602;23.470;2024-03-25T07:05:35;92517.44;;;3.51;78.42
11053;BME280;55230;42.602;23.470;2024-03-25T07:08:01;92521.97;;;3.70;79.22
11053;BME280;55230;42.602;23.470;2024-03-25T07:10:26;92518.75;;;3.73;79.88
11053;BME280;55230;42.602;23.470;2024-03-25T07:12:51;92520.34;;;3.77;79.55
11053;BME280;55230;42.602;23.470;2024-03-25T07:15:17;92519.56;;;4.01;80.26
11053;BME280;55230;42.602;23.470;2024-03-25T07:17:42;92528.66;;;4.14;78.46
11053;BME280;55230;42.602;23.470;2024-03-25T07:20:08;92524.97;;;4.28;77.86
11053;BME280;55230;42.602;23.470;2024-03-25T07:22:33;92533.25;;;4.52;77.86
11053;BME280;55230;42.602;23.470;2024-03-25T07:24:59;92545.59;;;4.47;75.09
11053;BME280;55230;42.602;23.470;2024-03-25T07:27:24;92529.59;;;4.81;75.78
11053;BME280;55230;42.602;23.470;2024-03-25T07:29:50;92535.69;;;4.93;76.21
11053;BME280;55230;42.602;23.470;2024-03-25T07:32:16;92546.00;;;4.49;73.71
11053;BME280;55230;42.602;23.470;2024-03-25T07:34:41;92540.88;;;4.49;74.62
11053;BME280;55230;42.602;23.470;2024-03-25T07:37:07;92534.19;;;4.60;76.04
11053;BME280;55230;42.602;23.470;2024-03-25T07:39:32;92535.59;;;4.57;76.34
11053;BME280;55230;42.602;23.470;2024-03-25T07:41:58;92547.84;;;4.64;75.12
11053;BME280;55230;42.602;23.470;2024-03-25T07:44:24;92542.31;;;4.62;74.23
11053;BME280;55230;42.602;23.470;2024-03-25T07:46:50;92542.44;;;4.53;76.19
11053;BME280;55230;42.602;23.470;2024-03-25T07:49:15;92549.03;;;4.39;74.58
11053;BME280;55230;42.602;23.470;2024-03-25T07:51:41;92540.09;;;4.33;75.48
11053;BME280;55230;42.602;23.470;2024-03-25T07:54:07;92547.28;;;4.27;74.60
11053;BME280;55230;42.602;23.470;2024-03-25T07:56:33;92552.00;;;4.41;75.39
11053;BME280;55230;42.602;23.470;2024-03-25T07:59:02;92545.44;;;4.28;73.87
11053;BME280;55230;42.602;23.470;2024-03-25T08:01:27;92554.94;;;4.27;72.02
11053;BME280;55230;42.602;23.470;2024-03-25T08:03:53;92556.97;;;4.34;74.22
11053;BME280;55230;42.602;23.470;2024-03-25T08:06:18;92559.81;;;4.60;73.68
11053;BME280;55230;42.602;23.470;2024-03-25T08:08:46;92552.34;;;4.55;72.62
11053;BME280;55230;42.602;23.470;2024-03-25T08:11:12;92555.53;;;4.64;73.89
11053;BME280;55230;42.602;23.470;2024-03-25T08:13:37;92551.91;;;4.97;73.65
11053;BME280;55230;42.602;23.470;2024-03-25T08:16:03;92565.19;;;5.49;71.33
11053;BME280;55230;42.602;23.470;2024-03-25T08:18:28;92565.59;;;5.51;69.84
11053;BME280;55230;42.602;23.470;2024-03-25T08:20:54;92562.31;;;5.35;70.36
11053;BME280;55230;42.602;23.470;2024-03-25T08:23:19;92551.41;;;5.07;69.39
11053;BME280;55230;42.602;23.470;2024-03-25T08:25:45;92567.38;;;5.32;67.93
11053;BME280;55230;42.602;23.470;2024-03-25T08:43:10;92570.00;;;5.35;68.83
11053;BME280;55230;42.602;23.470;2024-03-25T08:53:07;92592.13;;;6.10;67.01
11053;BME280;55230;42.602;23.470;2024-03-25T08:55:33;92590.56;;;5.54;68.57
11053;BME280;55230;42.602;23.470;2024-03-25T08:57:59;92600.19;;;5.42;66.73
11053;BME280;55230;42.602;23.470;2024-03-25T09:00:27;92592.59;;;5.30;68.91
11053;BME280;55230;42.602;23.470;2024-03-25T09:02:56;92594.91;;;5.85;67.95
11053;BME280;55230;42.602;23.470;2024-03-25T09:05:21;92592.56;;;5.61;64.68
11053;BME280;55230;42.602;23.470;2024-03-25T09:07:50;92588.69;;;6.02;65.30
11053;BME280;55230;42.602;23.470;2024-03-25T09:10:19;92591.88;;;5.80;65.21
11053;BME280;55230;42.602;23.470;2024-03-25T09:13:04;92585.78;;;5.37;69.00
11053;BME280;55230;42.602;23.470;2024-03-25T09:15:29;92594.16;;;5.50;67.25
11053;BME280;55230;42.602;23.470;2024-03-25T09:17:55;92598.25;;;5.70;66.37
11053;BME280;55230;42.602;23.470;2024-03-25T09:20:21;92587.81;;;5.79;64.84
11053;BME280;55230;42.602;23.470;2024-03-25T09:22:47;92592.06;;;6.64;64.69
11053;BME280;55230;42.602;23.470;2024-03-25T09:25:16;92587.84;;;7.21;63.34
11053;BME280;55230;42.602;23.470;2024-03-25T09:27:51;92601.41;;;6.95;64.28
11053;BME280;55230;42.602;23.470;2024-03-25T09:30:17;92604.50;;;6.62;64.64
11053;BME280;55230;42.602;23.470;2024-03-25T09:32:44;92610.19;;;6.52;64.74
11053;BME280;55230;42.602;23.470;2024-03-25T09:35:10;92607.56;;;6.90;62.15
11053;BME280;55230;42.602;23.470;2024-03-25T09:37:36;92610.94;;;6.14;64.32
11053;BME280;55230;42.602;23.470;2024-03-25T09:40:02;92612.13;;;7.20;66.94
11053;BME280;55230;42.602;23.470;2024-03-25T09:42:47;92611.69;;;6.34;65.31
11053;BME280;55230;42.602;23.470;2024-03-25T09:45:16;92617.59;;;6.76;62.82
11053;BME280;55230;42.602;23.470;2024-03-25T09:47:45;92618.53;;;6.87;64.21
11053;BME280;55230;42.602;23.470;2024-03-25T09:50:12;92611.56;;;6.88;62.25
11053;BME280;55230;42.602;23.470;2024-03-25T09:52:39;92612.50;;;7.22;62.30
11053;BME280;55230;42.602;23.470;2024-03-25T09:55:04;92623.56;;;6.61;63.49
11053;BME280;55230;42.602;23.470;2024-03-25T09:57:30;92616.28;;;6.63;64.27
11053;BME280;55230;42.602;23.470;2024-03-25T09:59:58;92628.31;;;6.59;63.41
11053;BME280;55230;42.602;23.470;2024-03-25T10:02:25;92624.50;;;6.72;63.28
11053;BME280;55230;42.602;23.470;2024-03-25T10:04:51;92632.06;;;6.07;63.91
11053;BME280;55230;42.602;23.470;2024-03-25T10:07:23;92628.72;;;6.42;64.49
11053;BME280;55230;42.602;23.470;2024-03-25T10:09:49;92625.50;;;6.10;63.00
11053;BME280;55230;42.602;23.470;2024-03-25T10:12:15;92632.25;;;5.99;63.74
11053;BME280;55230;42.602;23.470;2024-03-25T10:14:41;92631.59;;;6.02;63.00
11053;BME280;55230;42.602;23.470;2024-03-25T10:17:06;92637.97;;;5.76;63.56
11053;BME280;55230;42.602;23.470;2024-03-25T10:19:35;92638.56;;;6.01;64.27
11053;BME280;55230;42.602;23.470;2024-03-25T10:22:08;92628.81;;;6.10;64.64
11053;BME280;55230;42.602;23.470;2024-03-25T10:24:44;92635.16;;;6.51;63.35
11053;BME280;55230;42.602;23.470;2024-03-25T10:27:30;92634.59;;;6.42;61.67
11053;BME280;55230;42.602;23.470;2024-03-25T10:29:55;92639.34;;;6.05;63.58
11053;BME280;55230;42.602;23.470;2024-03-25T10:32:21;92642.53;;;5.83;64.50
11053;BME280;55230;42.602;23.470;2024-03-25T10:34:50;92634.91;;;5.86;63.30
11053;BME280;55230;42.602;23.470;2024-03-25T10:37:15;92638.88;;;6.00;64.42
11053;BME280;55230;42.602;23.470;2024-03-25T10:39:50;92641.78;;;5.98;63.44
11053;BME280;55230;42.602;23.470;2024-03-25T10:42:19;92638.81;;;5.96;62.94
11053;BME280;55230;42.602;23.470;2024-03-25T10:44:45;92639.09;;;6.10;61.89
11053;BME280;55230;42.602;23.470;2024-03-25T10:47:36;92639.88;;;6.30;61.93
11053;BME280;55230;42.602;23.470;2024-03-25T10:50:07;92650.72;;;6.23;60.89
11053;BME280;55230;42.602;23.470;2024-03-25T10:52:36;92630.53;;;6.22;59.26
11053;BME280;55230;42.602;23.470;2024-03-25T10:55:03;92630.22;;;7.27;59.01
11053;BME280;55230;42.602;23.470;2024-03-25T10:57:29;92618.31;;;6.96;56.88
11053;BME280;55230;42.602;23.470;2024-03-25T10:59:55;92620.41;;;6.90;56.24
11053;BME280;55230;42.602;23.470;2024-03-25T11:02:22;92633.72;;;7.15;56.18
11053;BME280;55230;42.602;23.470;2024-03-25T11:04:48;92624.22;;;7.42;56.13
11053;BME280;55230;42.602;23.470;2024-03-25T11:07:17;92618.03;;;7.24;55.13
11053;BME280;55230;42.602;23.470;2024-03-25T11:09:42;92620.91;;;7.42;56.23
11053;BME280;55230;42.602;23.470;2024-03-25T11:12:11;92620.16;;;6.95;53.39
11053;BME280;55230;42.602;23.470;2024-03-25T11:14:38;92623.09;;;6.75;54.93
11053;BME280;55230;42.602;23.470;2024-03-25T11:17:14;92613.38;;;6.64;54.68
11053;BME280;55230;42.602;23.470;2024-03-25T11:19:40;92605.16;;;6.78;55.43
11053;BME280;55230;42.602;23.470;2024-03-25T11:22:10;92607.56;;;6.90;54.29
11053;BME280;55230;42.602;23.470;2024-03-25T11:24:36;92613.28;;;6.80;55.18
11053;BME280;55230;42.602;23.470;2024-03-25T11:27:05;92612.88;;;6.40;53.66
11053;BME280;55230;42.602;23.470;2024-03-25T11:29:31;92617.09;;;6.67;52.72
11053;BME280;55230;42.602;23.470;2024-03-25T11:31:59;92610.25;;;6.55;54.54
11053;BME280;55230;42.602;23.470;2024-03-25T11:34:28;92611.13;;;6.63;55.46
11053;BME280;55230;42.602;23.470;2024-03-25T11:36:53;92625.22;;;6.69;56.18
11053;BME280;55230;42.602;23.470;2024-03-25T11:39:22;92621.63;;;6.96;54.65
11053;BME280;55230;42.602;23.470;2024-03-25T11:41:47;92629.56;;;6.88;55.49
11053;BME280;55230;42.602;23.470;2024-03-25T11:44:13;92635.81;;;7.55;53.65
11053;BME280;55230;42.602;23.470;2024-03-25T11:46:39;92645.00;;;7.53;53.79
11053;BME280;55230;42.602;23.470;2024-03-25T11:49:06;92641.50;;;7.19;54.89
11053;BME280;55230;42.602;23.470;2024-03-25T11:51:33;92651.22;;;6.87;54.64
11053;BME280;55230;42.602;23.470;2024-03-25T11:53:59;92644.72;;;6.93;55.51
11053;BME280;55230;42.602;23.470;2024-03-25T11:56:25;92637.75;;;6.55;56.58
11053;BME280;55230;42.602;23.470;2024-03-25T11:58:51;92640.63;;;6.30;56.03
11053;BME280;55230;42.602;23.470;2024-03-25T12:01:16;92655.97;;;6.46;56.05
11053;BME280;55230;42.602;23.470;2024-03-25T12:03:42;92658.22;;;6.13;59.20
11053;BME280;55230;42.602;23.470;2024-03-25T12:06:07;92645.00;;;6.30;60.27
11053;BME280;55230;42.602;23.470;2024-03-25T12:08:33;92639.28;;;6.37;61.10
11053;BME280;55230;42.602;23.470;2024-03-25T12:11:01;92649.75;;;6.86;59.65
11053;BME280;55230;42.602;23.470;2024-03-25T12:13:45;92639.72;;;7.68;58.77
11053;BME280;55230;42.602;23.470;2024-03-25T12:16:10;92633.59;;;7.31;58.68
11053;BME280;55230;42.602;23.470;2024-03-25T12:18:39;92628.56;;;7.38;60.30
11053;BME280;55230;42.602;23.470;2024-03-25T12:21:06;92632.94;;;6.92;60.28
11053;BME280;55230;42.602;23.470;2024-03-25T12:23:32;92642.78;;;6.67;58.71
11053;BME280;55230;42.602;23.470;2024-03-25T12:26:02;92637.78;;;6.36;58.90
11053;BME280;55230;42.602;23.470;2024-03-25T12:28:28;92643.72;;;6.40;58.41
11053;BME280;55230;42.602;23.470;2024-03-25T12:30:54;92638.72;;;6.27;59.24
11053;BME280;55230;42.602;23.470;2024-03-25T12:33:23;92650.97;;;6.34;59.05
11053;BME280;55230;42.602;23.470;2024-03-25T12:35:50;92651.50;;;6.43;57.61
11053;BME280;55230;42.602;23.470;2024-03-25T12:38:29;92648.13;;;6.20;59.30
11053;BME280;55230;42.602;23.470;2024-03-25T12:41:09;92654.25;;;6.54;58.83
11053;BME280;55230;42.602;23.470;2024-03-25T12:43:36;92647.44;;;6.81;58.89
11053;BME280;55230;42.602;23.470;2024-03-25T12:46:02;92658.47;;;6.81;58.84
11053;BME280;55230;42.602;23.470;2024-03-25T12:48:29;92661.25;;;7.15;58.23
11053;BME280;55230;42.602;23.470;2024-03-25T12:50:55;92657.38;;;7.02;57.83
11053;BME280;55230;42.602;23.470;2024-03-25T12:53:20;92651.72;;;7.15;58.51
11053;BME280;55230;42.602;23.470;2024-03-25T12:55:46;92661.78;;;7.01;55.34
11053;BME280;55230;42.602;23.470;2024-03-25T12:58:11;92660.38;;;6.65;55.61
11053;BME280;55230;42.602;23.470;2024-03-25T13:00:37;92661.44;;;6.64;55.15
11053;BME280;55230;42.602;23.470;2024-03-25T13:03:07;92667.66;;;7.02;55.78
11053;BME280;55230;42.602;23.470;2024-03-25T13:05:33;92660.38;;;6.84;55.70
11053;BME280;55230;42.602;23.470;2024-03-25T13:08:00;92657.94;;;6.53;54.47
11053;BME280;55230;42.602;23.470;2024-03-25T13:10:26;92655.22;;;6.46;56.61
11053;BME280;55230;42.602;23.470;2024-03-25T13:12:51;92656.84;;;6.35;55.84
11053;BME280;55230;42.602;23.470;2024-03-25T13:15:17;92664.84;;;6.49;56.68
11053;BME280;55230;42.602;23.470;2024-03-25T13:17:43;92659.56;;;6.61;56.25
11053;BME280;55230;42.602;23.470;2024-03-25T13:20:09;92670.69;;;6.88;54.48
11053;BME280;55230;42.602;23.470;2024-03-25T13:22:35;92663.19;;;6.98;53.89
11053;BME280;55230;42.602;23.470;2024-03-25T13:25:00;92664.13;;;7.32;52.01
11053;BME280;55230;42.602;23.470;2024-03-25T13:27:25;92661.19;;;7.53;47.33
11053;BME280;55230;42.602;23.470;2024-03-25T13:29:51;92669.66;;;7.57;46.50
11053;BME280;55230;42.602;23.470;2024-03-25T13:32:18;92665.31;;;7.39;47.64
11053;BME280;55230;42.602;23.470;2024-03-25T13:34:44;92662.41;;;7.17;48.65
11053;BME280;55230;42.602;23.470;2024-03-25T13:37:10;92667.13;;;7.34;50.21
11053;BME280;55230;42.602;23.470;2024-03-25T13:39:35;92666.16;;;7.92;51.08
11053;BME280;55230;42.602;23.470;2024-03-25T13:42:00;92664.59;;;7.61;50.00
11053;BME280;55230;42.602;23.470;2024-03-25T13:44:26;92672.47;;;7.26;50.21
11053;BME280;55230;42.602;23.470;2024-03-25T13:46:51;92677.84;;;7.40;51.15
11053;BME280;55230;42.602;23.470;2024-03-25T13:49:16;92674.31;;;7.48;50.98
11053;BME280;55230;42.602;23.470;2024-03-25T13:51:43;92689.47;;;7.76;50.51
11053;BME280;55230;42.602;23.470;2024-03-25T13:54:09;92695.25;;;7.69;50.08
11053;BME280;55230;42.602;23.470;2024-03-25T13:56:34;92695.28;;;7.96;51.26
11053;BME280;55230;42.602;23.470;2024-03-25T13:59:00;92698.81;;;8.11;49.63
11053;BME280;55230;42.602;23.470;2024-03-25T14:01:25;92703.13;;;7.80;50.01
11053;BME280;55230;42.602;23.470;2024-03-25T14:03:50;92704.50;;;7.97;49.41
11053;BME280;55230;42.602;23.470;2024-03-25T14:06:16;92709.09;;;8.33;48.06
11053;BME280;55230;42.602;23.470;2024-03-25T14:08:41;92703.00;;;7.73;48.81
11053;BME280;55230;42.602;23.470;2024-03-25T14:11:08;92709.19;;;7.91;49.83